FQVL

Vilankulo Airport

Vilanculo, Mozambique
METAR FQVL 191300Z 13014KT 9999 FEW020 30/22 Q1010
Observed Flight Rules
Jan-19 @ 13:00 UTC (12 hours ago) Visual Flight Rules
Wind Visibility Clouds
130° at 14 knots 10,000+ meters
  • Few at 2,000' AGL
Temperatures Readings
Current 30°C / 86°F
Dewpoint 22°C / 72°F
Humidity 62%
Altimeter 29.82" Hg
Pressure 1010 hPa
Elevation 21
METAR FQVL 191300Z 13014KT 9999 FEW020 30/22 Q1010
Observed Flight Rules
Jan-19 @ 13:00 UTC
(12 hours ago)
VFR
Wind Visibility
130° at 14 knots 10,000+ meters
Clouds
  • Few at 2,000' AGL
Temperature Dewpoint
30°C / 86°F 22°C / 72°F
Humidity Altimeter Pressure
62% 29.82" Hg 1010 hPa